createdAt,value
2023-04-06T00:01:49.153Z,12.79
2023-04-06T00:04:38.452Z,12.72
2023-04-06T00:07:29.273Z,12.59
2023-04-06T00:10:20.376Z,12.56
2023-04-06T00:13:09.895Z,12.48
2023-04-06T00:15:59.562Z,12.38
2023-04-06T00:18:49.045Z,12.23
2023-04-06T00:21:38.287Z,12.26
2023-04-06T00:24:27.623Z,12.23
2023-04-06T00:27:18.176Z,12.20
2023-04-06T00:30:09.623Z,12.19
2023-04-06T00:32:58.804Z,12.15
2023-04-06T00:35:48.389Z,12.13
2023-04-06T00:38:37.644Z,12.11
2023-04-06T00:41:27.258Z,12.06
2023-04-06T00:44:18.099Z,12.00
2023-04-06T00:47:07.406Z,12.01
2023-04-06T00:49:57.020Z,11.97
2023-04-06T00:52:46.369Z,11.95
2023-04-06T00:55:36.972Z,11.87
2023-04-06T00:58:27.153Z,11.87
2023-04-06T01:01:26.934Z,11.90
2023-04-06T01:04:20.642Z,11.88
2023-04-06T01:07:09.863Z,11.80
2023-04-06T01:10:08.218Z,11.82
2023-04-06T01:12:58.697Z,11.83
2023-04-06T01:16:08.154Z,11.86
2023-04-06T01:19:19.154Z,11.76
2023-04-06T01:22:18.537Z,11.83
2023-04-06T01:25:17.039Z,11.81
2023-04-06T01:28:23.156Z,11.72
2023-04-06T01:31:28.684Z,11.70
2023-04-06T01:34:18.241Z,11.73
2023-04-06T01:37:08.930Z,11.70
2023-04-06T01:40:00.343Z,11.69
2023-04-06T01:43:02.975Z,11.65
2023-04-06T01:46:12.565Z,11.66
2023-04-06T01:49:04.512Z,11.70
2023-04-06T01:51:58.956Z,11.70
2023-04-06T01:54:48.418Z,11.68
2023-04-06T01:57:44.012Z,11.72
2023-04-06T02:00:41.034Z,11.70
2023-04-06T02:03:30.414Z,11.73
2023-04-06T02:06:27.836Z,11.67
2023-04-06T02:09:17.380Z,11.64
2023-04-06T02:12:07.269Z,11.64
2023-04-06T02:14:59.101Z,11.56
2023-04-06T02:17:48.323Z,11.47
2023-04-06T02:20:37.465Z,11.61
2023-04-06T02:23:27.229Z,11.55
2023-04-06T02:26:16.846Z,11.52
2023-04-06T02:29:07.192Z,11.57
2023-04-06T02:31:58.068Z,11.53
2023-04-06T02:34:47.448Z,11.46
2023-04-06T02:37:38.535Z,11.49
2023-04-06T02:40:27.754Z,11.58
2023-04-06T02:43:18.426Z,11.50
2023-04-06T02:46:08.374Z,11.51
2023-04-06T02:49:02.807Z,11.50
2023-04-06T02:51:54.719Z,11.41
2023-04-06T02:54:52.271Z,11.42
2023-04-06T02:57:48.036Z,11.43
2023-04-06T03:00:38.220Z,11.39
2023-04-06T03:03:27.824Z,11.38
2023-04-06T03:06:19.532Z,11.33
2023-04-06T03:09:10.974Z,11.31
2023-04-06T03:12:04.426Z,11.34
2023-04-06T03:15:01.686Z,11.31
2023-04-06T03:17:52.805Z,11.23
2023-04-06T03:21:04.881Z,11.22
2023-04-06T03:24:07.444Z,11.23
2023-04-06T03:26:57.587Z,11.25
2023-04-06T03:29:47.376Z,11.18
2023-04-06T03:32:41.480Z,11.19
2023-04-06T03:35:30.868Z,11.17
2023-04-06T03:38:20.285Z,11.11
2023-04-06T03:41:11.715Z,11.10
2023-04-06T03:44:02.868Z,10.99
2023-04-06T03:46:52.256Z,11.05
2023-04-06T03:49:42.357Z,11.05
2023-04-06T03:52:34.346Z,11.11
2023-04-06T03:55:27.109Z,11.05
2023-04-06T03:58:17.857Z,11.03
2023-04-06T04:01:08.540Z,11.05
2023-04-06T04:03:58.177Z,10.91
2023-04-06T04:06:47.440Z,10.85
2023-04-06T04:09:37.685Z,10.76
2023-04-06T04:12:27.470Z,10.73
2023-04-06T04:15:18.311Z,10.72
2023-04-06T04:18:07.735Z,10.70
2023-04-06T04:20:57.101Z,10.69
2023-04-06T04:23:47.014Z,10.71
2023-04-06T04:26:36.490Z,10.72
2023-04-06T04:29:26.177Z,10.72
2023-04-06T04:32:18.766Z,10.68
2023-04-06T04:35:10.680Z,10.73
2023-04-06T04:38:03.012Z,10.68
2023-04-06T04:40:53.034Z,10.63
2023-04-06T04:43:42.296Z,10.65
2023-04-06T04:46:32.920Z,10.64
2023-04-06T04:49:24.478Z,10.69
2023-04-06T04:52:14.828Z,10.67
2023-04-06T04:55:16.267Z,10.70
2023-04-06T04:58:10.118Z,10.67
2023-04-06T05:01:10.938Z,10.63
2023-04-06T05:04:01.266Z,10.63
2023-04-06T05:06:52.110Z,10.68
2023-04-06T05:09:42.322Z,10.68
2023-04-06T05:12:32.709Z,10.68
2023-04-06T05:15:28.172Z,10.72
2023-04-06T05:18:23.445Z,10.71
2023-04-06T05:21:14.192Z,10.71
2023-04-06T05:24:16.411Z,10.73
2023-04-06T05:27:07.944Z,10.69
2023-04-06T05:29:57.955Z,10.75
2023-04-06T05:32:50.136Z,10.76
2023-04-06T05:35:39.973Z,10.80
2023-04-06T05:38:34.494Z,10.76
2023-04-06T05:41:33.223Z,10.78
2023-04-06T05:44:23.491Z,10.70
2023-04-06T05:47:22.917Z,10.60
2023-04-06T05:50:20.686Z,10.63
2023-04-06T05:53:09.984Z,10.64
2023-04-06T05:56:06.471Z,10.57
2023-04-06T05:58:57.477Z,10.58
2023-04-06T06:01:50.974Z,10.52
2023-04-06T06:04:42.122Z,10.57
2023-04-06T06:07:31.636Z,10.54
2023-04-06T06:10:24.315Z,10.54
2023-04-06T06:13:14.359Z,10.57
2023-04-06T06:16:06.501Z,10.49
2023-04-06T06:18:59.150Z,10.16
2023-04-06T06:21:48.552Z,10.52
2023-04-06T06:24:38.483Z,10.45
2023-04-06T06:27:27.971Z,10.51
2023-04-06T06:30:18.422Z,10.50
2023-04-06T06:33:09.687Z,10.45
2023-04-06T06:35:58.979Z,10.44
2023-04-06T06:38:48.213Z,10.41
2023-04-06T06:41:41.334Z,10.42
2023-04-06T06:44:31.432Z,10.42
2023-04-06T06:47:20.922Z,10.33
2023-04-06T06:50:12.358Z,10.26
2023-04-06T06:53:01.577Z,10.36
2023-04-06T06:55:51.102Z,10.35
2023-04-06T06:58:40.573Z,10.38
2023-04-06T07:01:29.743Z,10.41
2023-04-06T07:04:19.158Z,10.49
2023-04-06T07:07:10.602Z,10.59
2023-04-06T07:10:00.519Z,10.65
2023-04-06T07:12:50.111Z,10.61
2023-04-06T07:15:39.325Z,10.58
2023-04-06T07:18:28.710Z,10.57
2023-04-06T07:21:18.743Z,10.46
2023-04-06T07:24:10.483Z,10.49
2023-04-06T07:27:01.724Z,10.49
2023-04-06T07:29:51.539Z,10.55
2023-04-06T07:32:40.887Z,10.45
2023-04-06T07:35:31.718Z,10.46
2023-04-06T07:38:21.158Z,10.20
2023-04-06T07:41:11.814Z,10.55
2023-04-06T07:44:01.170Z,10.62
2023-04-06T07:46:51.152Z,10.63
2023-04-06T07:49:43.265Z,10.58
2023-04-06T07:52:34.655Z,10.59
2023-04-06T07:55:25.266Z,10.76
2023-04-06T07:58:15.910Z,10.77
2023-04-06T08:01:05.222Z,10.79
2023-04-06T08:03:56.734Z,10.71
2023-04-06T08:06:46.091Z,10.77
2023-04-06T08:09:35.671Z,10.95
2023-04-06T08:12:24.953Z,10.78
2023-04-06T08:15:16.033Z,10.89
2023-04-06T08:18:05.621Z,10.99
2023-04-06T08:20:55.053Z,10.91
2023-04-06T08:23:44.434Z,10.87
2023-04-06T08:26:33.953Z,11.02
2023-04-06T08:29:23.124Z,10.94
2023-04-06T08:32:13.722Z,11.04
2023-04-06T08:35:02.976Z,11.06
2023-04-06T08:37:52.212Z,11.19
2023-04-06T08:40:42.085Z,11.23
2023-04-06T08:43:32.797Z,11.30
2023-04-06T08:46:23.057Z,11.52
2023-04-06T08:49:14.548Z,11.65
2023-04-06T08:52:03.987Z,11.53
2023-04-06T08:54:53.207Z,11.89
2023-04-06T08:57:42.913Z,11.98
2023-04-06T09:00:32.522Z,12.15
2023-04-06T09:03:23.635Z,12.12
2023-04-06T09:06:15.409Z,12.16
2023-04-06T09:09:05.095Z,12.08
2023-04-06T09:11:54.978Z,12.20
2023-04-06T09:14:44.299Z,12.21
2023-04-06T09:17:35.072Z,12.36
2023-04-06T09:20:27.429Z,12.50
2023-04-06T09:23:22.211Z,12.40
2023-04-06T09:26:13.849Z,12.48
2023-04-06T09:29:04.623Z,12.60
2023-04-06T09:31:54.038Z,12.94
2023-04-06T09:34:43.324Z,12.98
2023-04-06T09:37:32.556Z,13.00
2023-04-06T09:40:23.394Z,12.94
2023-04-06T09:43:12.820Z,12.88
2023-04-06T09:46:05.169Z,12.74
2023-04-06T09:48:55.043Z,12.69
2023-04-06T09:51:48.442Z,12.59
2023-04-06T09:54:38.530Z,12.65
2023-04-06T09:57:34.351Z,12.98
2023-04-06T10:00:25.735Z,13.07
2023-04-06T10:03:33.822Z,13.11
2023-04-06T10:06:29.260Z,13.20
2023-04-06T10:09:18.687Z,13.22
2023-04-06T10:12:08.985Z,12.87
2023-04-06T10:14:59.836Z,12.80
2023-04-06T10:17:49.239Z,12.75
2023-04-06T10:20:45.845Z,12.65
2023-04-06T10:23:38.477Z,12.43
2023-04-06T10:26:27.682Z,12.39
2023-04-06T10:29:16.928Z,12.88
2023-04-06T10:32:07.712Z,13.89
2023-04-06T10:35:09.081Z,14.39
2023-04-06T10:38:05.861Z,14.41
2023-04-06T10:40:55.291Z,14.16
2023-04-06T10:43:45.398Z,13.79
2023-04-06T10:46:36.508Z,13.97
2023-04-06T10:49:27.965Z,13.94
2023-04-06T10:52:17.230Z,13.87
2023-04-06T10:55:07.682Z,13.69
2023-04-06T10:57:56.826Z,13.95
2023-04-06T11:00:50.858Z,14.74
2023-04-06T11:03:46.626Z,15.12
2023-04-06T11:06:37.282Z,15.14
2023-04-06T11:09:28.245Z,14.98
2023-04-06T11:12:26.030Z,14.65
2023-04-06T11:15:15.128Z,14.81
2023-04-06T11:18:06.995Z,15.45
2023-04-06T11:20:56.343Z,15.36
2023-04-06T11:23:47.030Z,15.39
2023-04-06T11:26:41.375Z,15.16
2023-04-06T11:29:32.672Z,15.22
2023-04-06T11:32:25.619Z,15.15
2023-04-06T11:35:26.336Z,16.04
2023-04-06T11:38:15.584Z,16.50
2023-04-06T11:41:13.623Z,17.03
2023-04-06T11:44:04.118Z,16.60
2023-04-06T11:46:56.538Z,16.22
2023-04-06T11:49:46.984Z,16.39
2023-04-06T11:52:36.554Z,16.71
2023-04-06T11:55:26.112Z,16.93
2023-04-06T11:58:17.103Z,17.19
2023-04-06T12:01:06.812Z,17.99
2023-04-06T12:03:56.364Z,18.51
2023-04-06T12:06:45.892Z,18.79
2023-04-06T12:09:37.071Z,19.21
2023-04-06T12:12:26.650Z,19.41
2023-04-06T12:15:17.456Z,19.81
2023-04-06T12:18:06.822Z,20.01
2023-04-06T12:20:56.123Z,20.08
2023-04-06T12:23:45.294Z,20.40
2023-04-06T12:26:35.088Z,19.80
2023-04-06T12:29:24.442Z,19.41
2023-04-06T12:32:15.097Z,19.15
2023-04-06T12:35:04.464Z,19.71
2023-04-06T12:37:53.665Z,20.04
2023-04-06T12:40:42.788Z,20.64
2023-04-06T12:43:31.895Z,20.39
2023-04-06T12:46:21.924Z,20.44
2023-04-06T12:49:12.615Z,20.51
2023-04-06T12:52:01.926Z,20.30
2023-04-06T12:54:51.497Z,20.15
2023-04-06T12:57:41.325Z,20.98
2023-04-06T13:00:31.789Z,21.21
2023-04-06T13:03:21.884Z,21.45
2023-04-06T13:06:14.259Z,20.88
2023-04-06T13:09:04.265Z,20.38
2023-04-06T13:11:53.393Z,19.60
2023-04-06T13:14:42.680Z,19.93
2023-04-06T13:17:32.220Z,20.09
2023-04-06T13:20:21.664Z,19.98
2023-04-06T13:23:12.496Z,20.47
2023-04-06T13:26:04.224Z,20.77
2023-04-06T13:28:53.594Z,20.94
2023-04-06T13:31:42.965Z,21.00
2023-04-06T13:34:32.704Z,21.50
2023-04-06T13:37:21.861Z,21.90
2023-04-06T13:40:14.061Z,22.47
2023-04-06T13:43:03.238Z,22.38
2023-04-06T13:45:53.607Z,22.80
2023-04-06T13:48:43.135Z,22.93
2023-04-06T13:51:33.131Z,22.93
2023-04-06T13:54:22.917Z,22.94
2023-04-06T13:57:13.619Z,22.91
2023-04-06T14:00:05.079Z,22.06
2023-04-06T14:02:57.005Z,21.57
2023-04-06T14:05:46.949Z,21.14
2023-04-06T14:08:36.116Z,21.58
2023-04-06T14:11:25.287Z,22.34
2023-04-06T14:14:16.106Z,22.38
2023-04-06T14:17:05.434Z,22.51
2023-04-06T14:19:54.639Z,22.57
2023-04-06T14:22:44.536Z,22.54
2023-04-06T14:25:35.883Z,22.93
2023-04-06T14:28:25.301Z,22.77
2023-04-06T14:31:17.336Z,22.28
2023-04-06T14:34:06.801Z,21.37
2023-04-06T14:36:56.313Z,20.61
2023-04-06T14:39:45.596Z,20.45
2023-04-06T14:42:35.664Z,20.75
2023-04-06T14:45:24.937Z,21.38
2023-04-06T14:48:16.938Z,21.59
2023-04-06T14:51:06.231Z,22.03
2023-04-06T14:53:55.473Z,22.47
2023-04-06T14:56:44.923Z,22.10
2023-04-06T14:59:35.954Z,22.52
2023-04-06T15:02:28.441Z,22.23
2023-04-06T15:05:19.453Z,21.63
2023-04-06T15:08:10.328Z,21.35
2023-04-06T15:11:01.960Z,21.03
2023-04-06T15:13:51.729Z,20.82
2023-04-06T15:16:40.945Z,20.36
2023-04-06T15:19:30.215Z,19.14
2023-04-06T15:22:20.890Z,18.65
2023-04-06T15:25:10.753Z,18.28
2023-04-06T15:28:01.267Z,17.64
2023-04-06T15:30:51.435Z,17.08
2023-04-06T15:33:41.831Z,16.85
2023-04-06T15:36:32.512Z,16.62
2023-04-06T15:39:23.167Z,17.08
2023-04-06T15:42:12.364Z,17.25
2023-04-06T15:45:01.980Z,17.62
2023-04-06T15:47:51.226Z,18.11
2023-04-06T15:50:40.552Z,18.17
2023-04-06T15:53:29.987Z,18.43
2023-04-06T15:56:21.085Z,18.71
2023-04-06T15:59:10.457Z,18.95
2023-04-06T16:02:00.883Z,18.80
2023-04-06T16:04:50.399Z,18.70
2023-04-06T16:07:39.757Z,18.88
2023-04-06T16:10:29.095Z,18.67
2023-04-06T16:13:20.154Z,18.42
2023-04-06T16:16:10.699Z,18.39
2023-04-06T16:18:59.910Z,18.61
2023-04-06T16:21:49.424Z,18.48
2023-04-06T16:24:39.929Z,18.49
2023-04-06T16:27:29.098Z,18.42
2023-04-06T16:30:19.942Z,18.39
2023-04-06T16:33:09.377Z,18.24
2023-04-06T16:35:58.611Z,18.45
2023-04-06T16:38:47.768Z,18.32
2023-04-06T16:41:37.124Z,17.86
2023-04-06T16:44:27.318Z,17.74
2023-04-06T16:47:18.343Z,17.59
2023-04-06T16:50:08.986Z,17.18
2023-04-06T16:52:58.249Z,17.09
2023-04-06T16:55:47.429Z,17.05
2023-04-06T16:58:37.882Z,17.01
2023-04-06T17:01:29.567Z,16.92
2023-04-06T17:04:20.864Z,16.86
2023-04-06T17:07:10.918Z,16.84
2023-04-06T17:10:02.389Z,16.64
2023-04-06T17:12:51.710Z,16.42
2023-04-06T17:15:41.033Z,16.40
2023-04-06T17:18:31.110Z,16.26
2023-04-06T17:21:21.949Z,16.36
2023-04-06T17:24:12.131Z,16.26
2023-04-06T17:27:02.872Z,16.20
2023-04-06T17:29:52.212Z,16.25
2023-04-06T17:32:42.676Z,16.23
2023-04-06T17:35:31.978Z,16.13
2023-04-06T17:38:23.303Z,16.23
2023-04-06T17:41:14.756Z,16.15
2023-04-06T17:44:04.138Z,16.20
2023-04-06T17:46:53.452Z,16.09
2023-04-06T17:49:42.966Z,15.78
2023-04-06T17:52:33.750Z,15.94
2023-04-06T17:55:24.682Z,15.80
2023-04-06T17:58:13.993Z,15.71
2023-04-06T18:01:08.655Z,15.57
2023-04-06T18:03:57.933Z,15.55
2023-04-06T18:06:47.536Z,15.56
2023-04-06T18:09:37.130Z,15.37
2023-04-06T18:12:27.780Z,15.51
2023-04-06T18:15:17.900Z,15.37
2023-04-06T18:18:08.058Z,15.46
2023-04-06T18:20:57.360Z,15.44
2023-04-06T18:23:46.613Z,15.31
2023-04-06T18:26:36.780Z,15.02
2023-04-06T18:29:27.519Z,14.97
2023-04-06T18:32:17.336Z,14.98
2023-04-06T18:35:09.372Z,14.87
2023-04-06T18:37:58.587Z,14.70
2023-04-06T18:40:47.851Z,14.64
2023-04-06T18:43:37.058Z,14.53
2023-04-06T18:46:27.679Z,14.53
2023-04-06T18:49:17.097Z,14.58
2023-04-06T18:52:07.496Z,14.43
2023-04-06T18:54:56.971Z,14.35
2023-04-06T18:57:46.231Z,14.36
2023-04-06T19:00:35.626Z,14.29
2023-04-06T19:03:28.587Z,14.23
2023-04-06T19:06:17.656Z,14.17
2023-04-06T19:09:07.790Z,14.09
2023-04-06T19:11:57.636Z,14.09
2023-04-06T19:14:51.721Z,14.09
2023-04-06T19:17:40.986Z,13.98
2023-04-06T19:20:34.508Z,13.93
2023-04-06T19:23:24.344Z,13.84
2023-04-06T19:26:17.023Z,13.83
2023-04-06T19:29:06.687Z,13.81
2023-04-06T19:31:56.150Z,13.65
2023-04-06T19:34:45.779Z,13.72
2023-04-06T19:37:38.013Z,13.61
2023-04-06T19:40:27.450Z,13.67
2023-04-06T19:43:18.161Z,13.63
2023-04-06T19:46:09.261Z,13.66
2023-04-06T19:48:58.701Z,13.60
2023-04-06T19:51:48.302Z,13.65
2023-04-06T19:54:39.715Z,13.62
2023-04-06T19:57:31.037Z,13.60
2023-04-06T20:00:21.684Z,13.57
2023-04-06T20:03:11.574Z,13.53
2023-04-06T20:06:02.571Z,13.41
2023-04-06T20:08:51.880Z,13.43
2023-04-06T20:11:42.536Z,13.38
2023-04-06T20:14:31.907Z,13.32
2023-04-06T20:17:22.061Z,13.17
2023-04-06T20:20:13.041Z,13.17
2023-04-06T20:23:02.275Z,13.15
2023-04-06T20:25:51.636Z,13.09
2023-04-06T20:28:42.367Z,13.02
2023-04-06T20:31:31.705Z,12.98
2023-04-06T20:34:21.018Z,12.94
2023-04-06T20:37:10.358Z,12.92
2023-04-06T20:39:59.600Z,12.83
2023-04-06T20:42:49.105Z,12.85
2023-04-06T20:45:39.711Z,12.84
2023-04-06T20:48:31.083Z,12.80
2023-04-06T20:51:23.411Z,12.75
2023-04-06T20:54:12.826Z,12.74
2023-04-06T20:57:02.930Z,12.69
2023-04-06T20:59:52.250Z,12.64
2023-04-06T21:02:43.303Z,12.56
2023-04-06T21:05:32.689Z,12.55
2023-04-06T21:08:21.933Z,12.47
2023-04-06T21:11:11.719Z,12.43
2023-04-06T21:14:01.063Z,12.40
2023-04-06T21:16:50.276Z,12.43
2023-04-06T21:19:40.888Z,12.33
2023-04-06T21:22:30.081Z,12.37
2023-04-06T21:25:19.543Z,12.34
2023-04-06T21:28:08.724Z,12.38
2023-04-06T21:30:58.007Z,12.33
2023-04-06T21:33:47.747Z,12.28
2023-04-06T21:36:38.722Z,12.22
2023-04-06T21:39:28.153Z,12.11
2023-04-06T21:42:17.283Z,11.99
2023-04-06T21:45:07.884Z,11.91
2023-04-06T21:47:57.307Z,11.80
2023-04-06T21:50:46.669Z,11.78
2023-04-06T21:53:43.143Z,11.82
2023-04-06T21:56:32.620Z,11.75
2023-04-06T21:59:25.040Z,11.70
2023-04-06T22:02:17.325Z,11.62
2023-04-06T22:05:07.501Z,11.61
2023-04-06T22:07:57.334Z,11.54
2023-04-06T22:10:48.194Z,11.50
2023-04-06T22:13:39.010Z,11.39
2023-04-06T22:16:28.628Z,11.29
2023-04-06T22:19:34.214Z,11.41
2023-04-06T22:22:23.775Z,11.38
2023-04-06T22:25:13.036Z,11.37
2023-04-06T22:28:06.877Z,11.33
2023-04-06T22:30:56.289Z,11.21
2023-04-06T22:33:45.630Z,11.19
2023-04-06T22:36:38.194Z,11.25
2023-04-06T22:39:30.764Z,11.21
2023-04-06T22:42:21.913Z,11.23
2023-04-06T22:45:13.161Z,11.25
2023-04-06T22:48:09.121Z,11.20
2023-04-06T22:51:01.274Z,11.14
2023-04-06T22:53:50.618Z,11.16
2023-04-06T22:56:39.910Z,11.15
2023-04-06T22:59:32.069Z,11.11
2023-04-06T23:02:22.924Z,11.05
2023-04-06T23:05:12.829Z,11.02
2023-04-06T23:08:02.124Z,10.90
2023-04-06T23:10:52.191Z,10.71
2023-04-06T23:13:41.464Z,10.63
2023-04-06T23:16:31.369Z,10.62
2023-04-06T23:19:22.135Z,10.63
2023-04-06T23:22:11.356Z,10.56
2023-04-06T23:25:00.631Z,10.53
2023-04-06T23:27:49.844Z,10.54
2023-04-06T23:30:39.227Z,10.48
2023-04-06T23:33:29.183Z,10.44
2023-04-06T23:36:19.895Z,10.41
2023-04-06T23:39:09.219Z,10.38
2023-04-06T23:41:59.020Z,10.34
2023-04-06T23:44:48.209Z,10.30
2023-04-06T23:47:37.621Z,10.28
2023-04-06T23:50:27.024Z,10.24
2023-04-06T23:53:17.545Z,10.17
2023-04-06T23:56:07.436Z,10.25
2023-04-06T23:58:56.614Z,10.26
